createdAt,value
2022-08-30T00:02:01.010Z,12.99
2022-08-30T00:04:27.507Z,12.85
2022-08-30T00:06:54.085Z,12.90
2022-08-30T00:09:20.604Z,12.99
2022-08-30T00:11:46.991Z,12.99
2022-08-30T00:14:13.433Z,12.89
2022-08-30T00:16:39.875Z,12.85
2022-08-30T00:19:06.446Z,12.77
2022-08-30T00:21:32.891Z,12.79
2022-08-30T00:23:59.371Z,12.81
2022-08-30T00:26:25.810Z,12.86
2022-08-30T00:28:52.236Z,12.81
2022-08-30T00:31:18.755Z,12.75
2022-08-30T00:33:45.224Z,12.73
2022-08-30T00:36:11.705Z,12.73
2022-08-30T00:38:38.121Z,12.72
2022-08-30T00:41:04.597Z,12.65
2022-08-30T00:43:36.888Z,12.62
2022-08-30T00:46:08.124Z,12.54
2022-08-30T00:48:40.745Z,12.41
2022-08-30T00:51:10.200Z,12.29
2022-08-30T00:53:45.599Z,12.19
2022-08-30T00:56:13.404Z,12.14
2022-08-30T00:58:45.419Z,12.24
2022-08-30T01:01:12.891Z,12.25
2022-08-30T01:03:39.638Z,12.29
2022-08-30T01:06:07.587Z,12.35
2022-08-30T01:08:35.329Z,12.37
2022-08-30T01:11:04.071Z,12.42
2022-08-30T01:13:32.292Z,12.49
2022-08-30T01:16:00.299Z,12.44
2022-08-30T01:18:28.934Z,12.16
2022-08-30T01:21:32.592Z,12.08
2022-08-30T01:24:00.604Z,12.01
2022-08-30T01:26:29.677Z,12.07
2022-08-30T01:29:02.183Z,11.99
2022-08-30T01:31:28.686Z,11.90
2022-08-30T01:33:55.084Z,11.86
2022-08-30T01:36:21.949Z,11.82
2022-08-30T01:38:52.870Z,11.82
2022-08-30T01:41:21.207Z,11.85
2022-08-30T01:43:49.426Z,11.79
2022-08-30T01:46:17.858Z,11.86
2022-08-30T01:48:50.261Z,11.90
2022-08-30T01:51:22.633Z,11.84
2022-08-30T01:53:49.106Z,11.86
2022-08-30T01:56:15.684Z,11.86
2022-08-30T01:58:43.313Z,11.89
2022-08-30T02:01:12.773Z,11.98
2022-08-30T02:03:41.571Z,11.96
2022-08-30T02:06:16.948Z,11.99
2022-08-30T02:08:43.729Z,12.05
2022-08-30T02:11:11.596Z,12.15
2022-08-30T02:13:39.211Z,12.00
2022-08-30T02:16:11.390Z,11.84
2022-08-30T02:18:39.330Z,11.73
2022-08-30T02:21:07.103Z,11.68
2022-08-30T02:23:33.537Z,11.75
2022-08-30T02:26:00.033Z,11.82
2022-08-30T02:28:26.487Z,11.78
2022-08-30T02:30:53.689Z,11.82
2022-08-30T02:33:20.573Z,11.87
2022-08-30T02:35:47.049Z,11.75
2022-08-30T02:38:13.533Z,11.82
2022-08-30T02:40:40.042Z,11.81
2022-08-30T02:43:07.254Z,11.83
2022-08-30T02:45:33.960Z,11.90
2022-08-30T02:48:00.423Z,11.94
2022-08-30T02:50:27.098Z,11.97
2022-08-30T02:52:54.349Z,11.96
2022-08-30T02:55:21.909Z,11.90
2022-08-30T02:57:48.357Z,11.87
2022-08-30T03:00:19.387Z,11.96
2022-08-30T03:02:46.814Z,11.96
2022-08-30T03:05:14.903Z,11.68
2022-08-30T03:07:42.541Z,11.83
2022-08-30T03:10:10.120Z,11.69
2022-08-30T03:12:36.574Z,11.90
2022-08-30T03:15:05.205Z,11.91
2022-08-30T03:17:31.603Z,12.04
2022-08-30T03:20:00.651Z,11.70
2022-08-30T03:22:27.060Z,11.54
2022-08-30T03:24:53.530Z,11.42
2022-08-30T03:27:19.933Z,11.39
2022-08-30T03:29:46.391Z,11.26
2022-08-30T03:32:12.885Z,11.19
2022-08-30T03:34:40.107Z,11.14
2022-08-30T03:37:06.517Z,11.17
2022-08-30T03:39:33.019Z,11.19
2022-08-30T03:41:59.434Z,11.20
2022-08-30T03:44:25.849Z,11.26
2022-08-30T03:46:52.620Z,11.37
2022-08-30T03:49:20.512Z,11.41
2022-08-30T03:51:47.483Z,11.40
2022-08-30T03:54:14.572Z,11.29
2022-08-30T03:56:41.201Z,11.31
2022-08-30T03:59:07.693Z,11.51
2022-08-30T04:01:34.222Z,11.56
2022-08-30T04:04:00.675Z,11.50
2022-08-30T04:06:28.094Z,11.58
2022-08-30T04:08:55.069Z,11.56
2022-08-30T04:11:22.093Z,11.13
2022-08-30T04:13:51.732Z,10.90
2022-08-30T04:16:19.649Z,10.88
2022-08-30T04:18:46.122Z,10.93
2022-08-30T04:21:14.212Z,10.97
2022-08-30T04:23:40.743Z,11.13
2022-08-30T04:26:07.780Z,11.14
2022-08-30T04:28:35.233Z,11.14
2022-08-30T04:31:12.240Z,11.29
2022-08-30T04:33:39.100Z,11.25
2022-08-30T04:36:07.228Z,11.07
2022-08-30T04:38:35.499Z,11.07
2022-08-30T04:41:02.557Z,11.09
2022-08-30T04:43:29.411Z,11.07
2022-08-30T04:45:57.881Z,11.19
2022-08-30T04:48:24.334Z,11.09
2022-08-30T04:50:51.064Z,11.16
2022-08-30T04:53:17.705Z,11.10
2022-08-30T04:55:44.533Z,11.05
2022-08-30T04:58:11.375Z,10.99
2022-08-30T05:00:38.020Z,11.05
2022-08-30T05:03:04.464Z,10.87
2022-08-30T05:05:40.362Z,10.91
2022-08-30T05:08:11.531Z,10.95
2022-08-30T05:10:43.642Z,11.11
2022-08-30T05:13:11.354Z,11.31
2022-08-30T05:15:39.673Z,11.32
2022-08-30T05:18:11.349Z,11.27
2022-08-30T05:20:40.875Z,11.49
2022-08-30T05:23:07.658Z,11.64
2022-08-30T05:25:38.392Z,11.72
2022-08-30T05:28:05.269Z,11.73
2022-08-30T05:30:36.646Z,11.92
2022-08-30T05:33:03.239Z,12.01
2022-08-30T05:35:29.870Z,12.11
2022-08-30T05:37:56.411Z,12.13
2022-08-30T05:40:23.435Z,12.37
2022-08-30T05:42:51.070Z,12.31
2022-08-30T05:45:17.719Z,12.37
2022-08-30T05:47:44.264Z,12.31
2022-08-30T05:50:11.134Z,12.40
2022-08-30T05:52:40.136Z,12.28
2022-08-30T05:55:07.722Z,12.50
2022-08-30T05:57:39.008Z,12.49
2022-08-30T06:00:09.719Z,12.42
2022-08-30T06:02:36.170Z,12.77
2022-08-30T06:05:05.063Z,12.94
2022-08-30T06:07:32.215Z,13.15
2022-08-30T06:09:58.697Z,13.16
2022-08-30T06:12:25.735Z,12.99
2022-08-30T06:14:52.175Z,13.46
2022-08-30T06:17:20.094Z,13.94
2022-08-30T06:19:46.517Z,14.77
2022-08-30T06:22:12.937Z,15.03
2022-08-30T06:24:56.462Z,15.02
2022-08-30T06:27:24.120Z,14.97
2022-08-30T06:29:51.956Z,15.16
2022-08-30T06:32:18.657Z,16.05
2022-08-30T06:34:45.116Z,16.10
2022-08-30T06:37:11.505Z,16.60
2022-08-30T06:39:37.939Z,17.90
2022-08-30T06:42:04.609Z,17.89
2022-08-30T06:44:31.060Z,18.72
2022-08-30T06:46:57.570Z,17.38
2022-08-30T06:49:24.192Z,17.71
2022-08-30T06:51:51.459Z,17.68
2022-08-30T06:54:18.056Z,18.45
2022-08-30T06:56:57.725Z,18.19
2022-08-30T06:59:25.931Z,18.56
2022-08-30T07:01:53.542Z,18.94
2022-08-30T07:04:20.010Z,19.04
2022-08-30T07:06:46.433Z,19.54
2022-08-30T07:09:12.826Z,19.51
2022-08-30T07:11:40.965Z,20.29
2022-08-30T07:14:07.537Z,20.14
2022-08-30T07:16:34.645Z,20.89
2022-08-30T07:19:03.087Z,20.46
2022-08-30T07:21:39.800Z,21.13
2022-08-30T07:24:08.740Z,21.33
2022-08-30T07:26:41.646Z,20.90
2022-08-30T07:29:09.557Z,22.67
2022-08-30T07:31:37.544Z,22.87
2022-08-30T07:34:05.632Z,23.10
2022-08-30T07:36:32.224Z,22.91
2022-08-30T07:38:59.014Z,22.17
2022-08-30T07:41:31.633Z,23.00
2022-08-30T07:43:58.640Z,22.92
2022-08-30T07:46:27.414Z,22.92
2022-08-30T07:48:55.187Z,23.09
2022-08-30T07:51:24.920Z,23.64
2022-08-30T07:53:52.788Z,23.44
2022-08-30T07:56:19.434Z,23.26
2022-08-30T07:58:45.839Z,24.29
2022-08-30T08:01:13.501Z,24.21
2022-08-30T08:03:41.734Z,24.20
2022-08-30T08:06:10.095Z,24.31
2022-08-30T08:08:39.714Z,24.43
2022-08-30T08:11:08.643Z,24.61
2022-08-30T08:13:44.657Z,24.63
2022-08-30T08:16:23.004Z,24.89
2022-08-30T08:18:49.774Z,25.47
2022-08-30T08:21:16.612Z,25.26
2022-08-30T08:23:43.051Z,25.15
2022-08-30T08:26:09.704Z,26.32
2022-08-30T08:28:36.147Z,25.67
2022-08-30T08:31:03.519Z,25.68
2022-08-30T08:33:30.700Z,26.72
2022-08-30T08:35:57.189Z,25.77
2022-08-30T08:38:23.862Z,25.36
2022-08-30T08:41:05.594Z,25.91
2022-08-30T08:43:35.821Z,26.67
2022-08-30T08:46:12.462Z,26.87
2022-08-30T08:48:58.611Z,26.24
2022-08-30T08:51:49.454Z,26.91
2022-08-30T08:54:22.821Z,26.19
2022-08-30T08:56:49.569Z,26.58
2022-08-30T08:59:17.078Z,26.44
2022-08-30T09:01:43.608Z,27.16
2022-08-30T09:04:17.573Z,27.68
2022-08-30T09:07:09.004Z,26.28
2022-08-30T09:09:38.507Z,27.34
2022-08-30T09:12:06.564Z,27.11
2022-08-30T09:14:44.320Z,27.74
2022-08-30T09:17:15.856Z,27.86
2022-08-30T09:19:51.398Z,27.50
2022-08-30T09:22:26.236Z,26.88
2022-08-30T09:25:00.261Z,26.68
2022-08-30T09:27:36.823Z,28.66
2022-08-30T09:33:03.350Z,27.71
2022-08-30T09:35:35.106Z,28.81
2022-08-30T09:38:06.704Z,26.70
2022-08-30T09:40:36.197Z,28.05
2022-08-30T09:43:31.132Z,30.96
2022-08-30T09:46:00.437Z,30.23
2022-08-30T09:48:27.114Z,30.02
2022-08-30T09:51:02.161Z,31.08
2022-08-30T09:53:35.239Z,31.21
2022-08-30T09:56:10.144Z,27.09
2022-08-30T09:59:11.994Z,28.65
2022-08-30T10:01:52.017Z,30.69
2022-08-30T10:04:45.984Z,29.21
2022-08-30T10:07:18.742Z,29.74
2022-08-30T10:10:02.502Z,28.71
2022-08-30T10:12:42.218Z,28.58
2022-08-30T10:15:08.838Z,29.23
2022-08-30T10:17:52.321Z,28.69
2022-08-30T10:20:30.351Z,29.17
2022-08-30T10:23:06.255Z,29.01
2022-08-30T10:25:39.036Z,29.97
2022-08-30T10:28:16.976Z,30.91
2022-08-30T10:30:54.586Z,30.73
2022-08-30T10:33:26.877Z,31.33
2022-08-30T10:36:02.826Z,28.52
2022-08-30T10:38:38.888Z,28.49
2022-08-30T10:41:14.456Z,28.41
2022-08-30T10:43:59.843Z,29.01
2022-08-30T10:47:11.618Z,30.80
2022-08-30T10:49:45.217Z,28.38
2022-08-30T10:52:12.246Z,28.42
2022-08-30T10:54:46.961Z,30.99
2022-08-30T10:57:14.681Z,31.64
2022-08-30T10:59:46.796Z,30.38
2022-08-30T11:02:34.649Z,28.62
2022-08-30T11:05:21.399Z,28.83
2022-08-30T11:08:07.507Z,29.54
2022-08-30T11:11:16.843Z,31.57
2022-08-30T11:13:45.574Z,30.70
2022-08-30T11:16:15.806Z,32.37
2022-08-30T11:18:44.729Z,30.39
2022-08-30T11:21:17.388Z,31.56
2022-08-30T11:23:59.421Z,30.25
2022-08-30T11:26:46.139Z,30.36
2022-08-30T11:29:42.166Z,31.38
2022-08-30T11:32:17.213Z,30.13
2022-08-30T11:34:46.582Z,30.77
2022-08-30T11:37:35.849Z,29.50
2022-08-30T11:40:13.273Z,28.70
2022-08-30T11:42:49.285Z,31.77
2022-08-30T11:45:26.790Z,32.71
2022-08-30T11:47:59.625Z,33.67
2022-08-30T11:51:01.502Z,31.07
2022-08-30T11:53:55.648Z,33.18
2022-08-30T11:56:44.282Z,31.72
2022-08-30T11:59:26.064Z,31.86
2022-08-30T12:01:52.585Z,28.71
2022-08-30T12:04:19.728Z,29.98
2022-08-30T12:07:04.323Z,31.74
2022-08-30T12:09:32.902Z,34.19
2022-08-30T12:12:05.485Z,33.84
2022-08-30T12:14:41.518Z,30.54
2022-08-30T12:17:41.830Z,31.82
2022-08-30T12:20:29.382Z,31.23
2022-08-30T12:22:57.010Z,32.59
2022-08-30T12:25:31.154Z,32.18
2022-08-30T12:28:22.472Z,28.83
2022-08-30T12:30:49.856Z,27.54
2022-08-30T12:33:29.588Z,29.78
2022-08-30T12:35:59.202Z,28.62
2022-08-30T12:38:27.774Z,29.54
2022-08-30T12:40:57.979Z,30.63
2022-08-30T12:43:40.181Z,30.02
2022-08-30T12:46:12.636Z,31.81
2022-08-30T12:48:42.888Z,30.31
2022-08-30T12:51:25.997Z,29.32
2022-08-30T12:53:52.654Z,30.30
2022-08-30T12:56:35.071Z,29.81
2022-08-30T12:59:07.483Z,31.11
2022-08-30T13:01:35.782Z,29.09
2022-08-30T13:04:22.948Z,29.48
2022-08-30T13:06:53.573Z,29.68
2022-08-30T13:09:35.641Z,28.75
2022-08-30T13:12:24.124Z,30.45
2022-08-30T13:14:53.581Z,30.18
2022-08-30T13:17:33.490Z,29.55
2022-08-30T13:20:22.317Z,29.77
2022-08-30T13:23:07.041Z,31.17
2022-08-30T13:25:35.161Z,29.93
2022-08-30T13:28:08.450Z,29.36
2022-08-30T13:30:35.730Z,29.42
2022-08-30T13:33:02.601Z,28.56
2022-08-30T13:35:30.766Z,28.43
2022-08-30T13:37:59.964Z,29.51
2022-08-30T13:40:26.493Z,28.04
2022-08-30T13:42:53.025Z,28.86
2022-08-30T13:48:07.267Z,27.56
2022-08-30T13:50:33.822Z,28.80
2022-08-30T13:53:00.359Z,28.20
2022-08-30T13:55:26.847Z,26.67
2022-08-30T13:57:55.141Z,26.96
2022-08-30T14:00:23.725Z,27.49
2022-08-30T14:02:55.921Z,26.50
2022-08-30T14:11:05.019Z,26.63
2022-08-30T14:13:31.621Z,26.85
2022-08-30T14:18:47.906Z,26.76
2022-08-30T14:21:15.917Z,27.14
2022-08-30T14:23:42.533Z,26.84
2022-08-30T14:26:18.488Z,26.68
2022-08-30T14:28:45.003Z,26.18
2022-08-30T14:31:11.953Z,26.32
2022-08-30T14:33:40.204Z,26.30
2022-08-30T14:36:12.415Z,25.97
2022-08-30T14:38:42.677Z,26.06
2022-08-30T14:41:10.875Z,26.31
2022-08-30T14:43:40.225Z,26.62
2022-08-30T14:46:08.892Z,26.93
2022-08-30T14:48:38.036Z,27.11
2022-08-30T14:51:17.109Z,27.02
2022-08-30T14:53:44.445Z,26.80
2022-08-30T14:56:14.333Z,26.44
2022-08-30T14:58:40.986Z,26.48
2022-08-30T15:01:12.464Z,26.63
2022-08-30T15:03:40.301Z,26.83
2022-08-30T15:06:07.432Z,26.51
2022-08-30T15:08:35.505Z,26.59
2022-08-30T15:11:10.928Z,25.92
2022-08-30T15:13:39.256Z,26.14
2022-08-30T15:16:12.704Z,26.28
2022-08-30T15:18:39.283Z,26.21
2022-08-30T15:21:09.201Z,25.78
2022-08-30T15:23:36.656Z,25.92
2022-08-30T15:26:03.397Z,26.15
2022-08-30T15:28:30.143Z,25.71
2022-08-30T15:30:56.659Z,25.61
2022-08-30T15:33:23.692Z,25.90
2022-08-30T15:35:52.052Z,25.50
2022-08-30T15:38:19.464Z,25.36
2022-08-30T15:40:50.040Z,25.57
2022-08-30T15:43:16.717Z,25.60
2022-08-30T15:45:43.192Z,25.41
2022-08-30T15:48:09.870Z,25.23
2022-08-30T15:50:36.396Z,25.34
2022-08-30T15:53:03.547Z,25.18
2022-08-30T15:55:29.958Z,25.03
2022-08-30T15:57:56.394Z,25.07
2022-08-30T16:00:22.769Z,25.12
2022-08-30T16:02:50.727Z,25.19
2022-08-30T16:05:21.238Z,25.11
2022-08-30T16:07:47.827Z,24.88
2022-08-30T16:10:15.208Z,24.97
2022-08-30T16:12:41.747Z,24.89
2022-08-30T16:15:08.803Z,24.85
2022-08-30T16:17:35.958Z,24.70
2022-08-30T16:20:03.765Z,24.74
2022-08-30T16:22:30.748Z,24.86
2022-08-30T16:24:57.141Z,24.82
2022-08-30T16:27:24.928Z,24.69
2022-08-30T16:29:51.347Z,24.73
2022-08-30T16:32:18.303Z,24.56
2022-08-30T16:34:44.768Z,24.65
2022-08-30T16:37:11.137Z,24.24
2022-08-30T16:39:37.569Z,24.51
2022-08-30T16:42:06.780Z,24.59
2022-08-30T16:44:34.127Z,24.41
2022-08-30T16:47:01.267Z,24.38
2022-08-30T16:49:27.764Z,24.31
2022-08-30T16:51:54.592Z,24.13
2022-08-30T16:54:21.643Z,24.09
2022-08-30T16:56:48.202Z,23.95
2022-08-30T16:59:16.715Z,23.90
2022-08-30T17:01:44.088Z,23.70
2022-08-30T17:04:13.862Z,23.71
2022-08-30T17:06:45.135Z,23.60
2022-08-30T17:09:12.355Z,23.60
2022-08-30T17:11:40.222Z,23.57
2022-08-30T17:14:07.436Z,23.50
2022-08-30T17:16:36.009Z,23.54
2022-08-30T17:19:06.316Z,23.50
2022-08-30T17:21:33.155Z,23.30
2022-08-30T17:24:02.128Z,23.29
2022-08-30T17:26:34.608Z,23.26
2022-08-30T17:29:02.179Z,23.13
2022-08-30T17:31:31.405Z,23.04
2022-08-30T17:34:03.460Z,23.00
2022-08-30T17:36:35.610Z,22.76
2022-08-30T17:39:10.456Z,22.78
2022-08-30T17:41:38.188Z,22.67
2022-08-30T17:44:05.052Z,22.62
2022-08-30T17:46:32.965Z,22.60
2022-08-30T17:49:01.409Z,22.60
2022-08-30T17:51:29.727Z,22.48
2022-08-30T17:53:57.036Z,22.33
2022-08-30T17:56:24.285Z,22.32
2022-08-30T17:59:00.836Z,22.25
2022-08-30T18:01:28.219Z,22.24
2022-08-30T18:04:01.618Z,22.13
2022-08-30T18:06:29.145Z,22.08
2022-08-30T18:08:56.173Z,21.90
2022-08-30T18:11:22.959Z,21.90
2022-08-30T18:13:49.821Z,21.97
2022-08-30T18:16:16.570Z,21.81
2022-08-30T18:18:49.396Z,21.77
2022-08-30T18:21:19.579Z,21.73
2022-08-30T18:23:49.967Z,21.67
2022-08-30T18:26:17.448Z,21.59
2022-08-30T18:28:44.838Z,21.47
2022-08-30T18:31:11.456Z,21.41
2022-08-30T18:33:37.850Z,21.44
2022-08-30T18:36:05.909Z,21.36
2022-08-30T18:38:32.866Z,21.23
2022-08-30T18:41:06.456Z,21.19
2022-08-30T18:43:33.952Z,21.17
2022-08-30T18:46:06.387Z,21.02
2022-08-30T18:48:33.624Z,21.02
2022-08-30T18:51:01.992Z,20.96
2022-08-30T18:53:29.563Z,20.96
2022-08-30T18:55:56.466Z,20.82
2022-08-30T18:58:22.961Z,20.77
2022-08-30T19:00:49.663Z,20.91
2022-08-30T19:03:18.274Z,20.75
2022-08-30T19:05:45.607Z,20.55
2022-08-30T19:08:13.423Z,20.49
2022-08-30T19:10:39.941Z,20.49
2022-08-30T19:13:06.797Z,20.38
2022-08-30T19:15:34.923Z,20.34
2022-08-30T19:18:03.118Z,20.31
2022-08-30T19:20:43.632Z,20.32
2022-08-30T19:23:10.407Z,20.44
2022-08-30T19:25:38.799Z,20.38
2022-08-30T19:28:05.616Z,20.26
2022-08-30T19:30:32.492Z,20.23
2022-08-30T19:32:58.917Z,20.07
2022-08-30T19:35:26.289Z,20.09
2022-08-30T19:37:52.737Z,20.07
2022-08-30T19:40:20.806Z,20.01
2022-08-30T19:42:48.338Z,20.03
2022-08-30T19:45:17.786Z,19.92
2022-08-30T19:47:45.310Z,19.95
2022-08-30T19:50:14.260Z,19.89
2022-08-30T19:52:40.680Z,19.70
2022-08-30T19:55:09.136Z,19.68
2022-08-30T19:57:36.193Z,19.63
2022-08-30T20:00:03.826Z,19.55
2022-08-30T20:02:30.282Z,19.61
2022-08-30T20:04:57.986Z,19.56
2022-08-30T20:07:27.510Z,19.46
2022-08-30T20:09:54.908Z,19.40
2022-08-30T20:12:21.337Z,19.39
2022-08-30T20:14:48.513Z,19.38
2022-08-30T20:17:15.404Z,19.29
2022-08-30T20:19:42.071Z,19.27
2022-08-30T20:22:09.344Z,19.27
2022-08-30T20:27:08.042Z,19.21
2022-08-30T20:29:34.569Z,19.17
2022-08-30T20:32:03.162Z,19.14
2022-08-30T20:34:29.791Z,19.17
2022-08-30T20:36:57.245Z,19.04
2022-08-30T20:39:24.451Z,18.99
2022-08-30T20:41:51.549Z,18.92
2022-08-30T20:44:18.975Z,19.04
2022-08-30T20:46:47.224Z,18.96
2022-08-30T20:49:14.164Z,18.94
2022-08-30T20:51:40.794Z,18.69
2022-08-30T20:54:07.326Z,18.70
2022-08-30T20:56:34.434Z,18.78
2022-08-30T20:59:02.683Z,18.88
2022-08-30T21:01:32.712Z,18.82
2022-08-30T21:03:59.719Z,18.88
2022-08-30T21:06:26.139Z,18.73
2022-08-30T21:08:52.652Z,18.69
2022-08-30T21:11:19.640Z,18.60
2022-08-30T21:13:48.262Z,18.47
2022-08-30T21:16:17.184Z,18.31
2022-08-30T21:18:48.420Z,18.30
2022-08-30T21:21:21.379Z,18.42
2022-08-30T21:23:58.883Z,18.45
2022-08-30T21:26:25.372Z,18.35
2022-08-30T21:28:53.633Z,18.23
2022-08-30T21:31:25.886Z,18.19
2022-08-30T21:33:54.375Z,18.07
2022-08-30T21:36:40.978Z,18.06
2022-08-30T21:39:08.466Z,17.91
2022-08-30T21:41:37.382Z,17.94
2022-08-30T21:44:08.001Z,17.96
2022-08-30T21:46:35.773Z,17.88
2022-08-30T21:49:04.817Z,17.82
2022-08-30T21:51:38.179Z,17.85
2022-08-30T21:54:08.653Z,17.74
2022-08-30T21:56:36.169Z,17.70
2022-08-30T21:59:04.631Z,17.58
2022-08-30T22:01:31.862Z,17.64
2022-08-30T22:04:00.519Z,17.54
2022-08-30T22:06:31.121Z,17.49
2022-08-30T22:08:58.298Z,17.47
2022-08-30T22:11:26.595Z,17.45
2022-08-30T22:13:54.358Z,17.41
2022-08-30T22:16:21.482Z,17.41
2022-08-30T22:18:48.935Z,17.35
2022-08-30T22:21:18.132Z,17.32
2022-08-30T22:23:45.327Z,17.33
2022-08-30T22:26:14.879Z,17.23
2022-08-30T22:28:41.674Z,17.22
2022-08-30T22:31:11.084Z,17.22
2022-08-30T22:33:37.720Z,17.24
2022-08-30T22:36:12.710Z,17.30
2022-08-30T22:38:40.400Z,17.25
2022-08-30T22:41:12.047Z,17.35
2022-08-30T22:43:39.313Z,17.29
2022-08-30T22:46:09.367Z,17.33
2022-08-30T22:48:37.979Z,17.37
2022-08-30T22:51:05.438Z,17.42
2022-08-30T22:53:32.608Z,17.42
2022-08-30T22:56:00.717Z,17.44
2022-08-30T22:58:27.125Z,17.37
2022-08-30T23:00:55.124Z,17.34
2022-08-30T23:03:21.926Z,17.33
2022-08-30T23:05:48.391Z,17.32
2022-08-30T23:08:14.776Z,17.26
2022-08-30T23:10:41.516Z,17.26
2022-08-30T23:13:07.898Z,17.27
2022-08-30T23:15:34.535Z,17.23
2022-08-30T23:18:00.956Z,17.11
2022-08-30T23:20:27.389Z,17.16
2022-08-30T23:22:59.482Z,17.14
2022-08-30T23:25:47.536Z,17.05
2022-08-30T23:28:38.440Z,17.04
2022-08-30T23:31:28.856Z,16.97
2022-08-30T23:34:14.090Z,16.93
2022-08-30T23:36:59.050Z,16.90
2022-08-30T23:39:43.819Z,16.85
2022-08-30T23:42:29.277Z,16.81
2022-08-30T23:45:14.177Z,16.79
2022-08-30T23:47:59.461Z,16.72
2022-08-30T23:50:44.419Z,16.67
2022-08-30T23:53:29.517Z,16.66
2022-08-30T23:56:14.709Z,16.60
2022-08-30T23:58:59.973Z,16.61
